Time;durP1;ratioP1;P1;durP2;ratioP2;P2;SDS_P1;SDS_P2;PMS_P1;PMS_P2;Temp;Humidity;BMP_temperature;BMP_pressure;BME280_temperature;BME280_humidity;BME280_pressure;Samples;Min_cycle;Max_cycle;Signal;HPM_P1;HPM_P2
2021/12/03 00:01:25;;;;;;;1.52;0.73;;;16.80;47.30;;;;;;5065916;28;20033;-60
2021/12/03 00:03:53;;;;;;;2.53;0.57;;;16.80;47.30;;;;;;5065422;28;20044;-59
2021/12/03 00:06:21;;;;;;;2.38;0.85;;;16.80;47.70;;;;;;5066110;28;20052;-59
2021/12/03 00:08:48;;;;;;;3.58;0.98;;;16.80;47.40;;;;;;5065956;28;20064;-59
2021/12/03 00:11:16;;;;;;;0.68;0.63;;;16.80;47.40;;;;;;5064287;28;20043;-59
2021/12/03 00:13:44;;;;;;;2.78;1.27;;;16.80;47.40;;;;;;5064157;28;20044;-57
2021/12/03 00:16:12;;;;;;;4.53;0.95;;;16.80;47.40;;;;;;5065936;28;20033;-59
2021/12/03 00:18:42;;;;;;;2.83;1.50;;;16.80;47.40;;;;;;5065637;28;20047;-59
2021/12/03 00:21:11;;;;;;;2.28;1.52;;;16.70;47.30;;;;;;5065537;28;20047;-59
2021/12/03 00:23:38;;;;;;;2.35;1.27;;;16.70;47.30;;;;;;5065938;28;20111;-59
2021/12/03 00:26:06;;;;;;;3.80;2.08;;;16.70;47.40;;;;;;5065546;28;20051;-59
2021/12/03 00:28:34;;;;;;;2.80;1.27;;;16.70;47.30;;;;;;5066955;28;20047;-59
2021/12/03 00:31:02;;;;;;;5.22;1.00;;;16.70;47.40;;;;;;5065588;28;20037;-59
2021/12/03 00:33:31;;;;;;;3.55;1.60;;;16.70;47.40;;;;;;5065208;28;20040;-58
2021/12/03 00:36:04;;;;;;;5.70;1.52;;;16.70;47.30;;;;;;5064045;28;20041;-59
2021/12/03 00:38:35;;;;;;;2.35;1.25;;;16.70;47.40;;;;;;5065708;28;20047;-54
2021/12/03 00:41:04;;;;;;;2.65;1.40;;;16.70;47.40;;;;;;5065441;28;20040;-58
2021/12/03 00:43:31;;;;;;;4.97;1.60;;;16.70;47.40;;;;;;5066658;28;20421;-59
2021/12/03 00:46:05;;;;;;;5.57;1.88;;;16.70;47.30;;;;;;5065273;28;20151;-59
2021/12/03 00:48:32;;;;;;;2.08;0.93;;;16.70;47.40;;;;;;5064946;28;20047;-59
2021/12/03 00:51:00;;;;;;;3.63;2.10;;;16.70;47.50;;;;;;5064823;28;20040;-59
2021/12/03 00:53:28;;;;;;;3.05;1.55;;;16.70;47.50;;;;;;5065628;28;20117;-61
2021/12/03 00:55:55;;;;;;;5.38;1.50;;;16.70;47.50;;;;;;5064900;28;20044;-59
2021/12/03 00:58:22;;;;;;;2.42;1.60;;;16.70;47.50;;;;;;5066536;28;20047;-58
2021/12/03 01:00:49;;;;;;;4.75;2.25;;;16.70;47.50;;;;;;5064745;28;20040;-58
2021/12/03 01:03:16;;;;;;;4.20;2.05;;;16.60;47.40;;;;;;5064709;28;20479;-60
2021/12/03 01:05:43;;;;;;;3.17;1.40;;;16.60;47.50;;;;;;5064826;28;20127;-57
2021/12/03 01:08:12;;;;;;;2.83;1.35;;;16.70;47.60;;;;;;5064637;28;20195;-58
2021/12/03 01:10:39;;;;;;;3.22;2.00;;;16.60;47.60;;;;;;5066199;28;20068;-59
2021/12/03 01:13:06;;;;;;;2.13;1.63;;;16.60;47.60;;;;;;5065526;28;20578;-59
2021/12/03 01:15:41;;;;;;;3.80;1.45;;;16.60;47.60;;;;;;5064501;28;20805;-59
2021/12/03 01:18:10;;;;;;;7.45;2.53;;;16.60;47.60;;;;;;5064842;28;20115;-59
2021/12/03 01:20:38;;;;;;;3.28;1.33;;;16.60;47.60;;;;;;5064980;28;20600;-60
2021/12/03 01:23:07;;;;;;;5.88;1.63;;;16.60;47.70;;;;;;5065025;28;20420;-59
2021/12/03 01:25:35;;;;;;;4.10;1.63;;;16.60;47.70;;;;;;5066342;28;20049;-60
2021/12/03 01:28:03;;;;;;;3.03;2.05;;;16.60;47.70;;;;;;5064129;28;20052;-60
2021/12/03 01:30:31;;;;;;;4.03;2.25;;;16.60;47.70;;;;;;5059954;28;20033;-59
2021/12/03 01:33:00;;;;;;;3.88;1.95;;;16.60;47.70;;;;;;5058124;28;20051;-60
2021/12/03 01:35:28;;;;;;;1.48;1.25;;;16.60;47.70;;;;;;5059349;28;20029;-60
2021/12/03 01:37:55;;;;;;;4.90;1.05;;;16.60;47.70;;;;;;5090403;28;20517;-59
2021/12/03 01:40:26;;;;;;;5.05;1.52;;;16.60;47.70;;;;;;5064165;28;20048;-58
2021/12/03 01:42:55;;;;;;;2.70;1.42;;;16.60;47.70;;;;;;5063105;28;20119;-60
2021/12/03 01:45:27;;;;;;;1.80;1.08;;;16.60;47.70;;;;;;5064009;28;20054;-60
2021/12/03 01:47:55;;;;;;;3.28;1.33;;;16.60;47.70;;;;;;5064654;28;20079;-59
2021/12/03 01:50:25;;;;;;;1.20;0.55;;;16.60;47.70;;;;;;5064858;28;20029;-57
2021/12/03 01:52:53;;;;;;;2.38;1.23;;;16.60;47.70;;;;;;5065121;28;20059;-59
2021/12/03 01:55:20;;;;;;;2.35;1.00;;;16.50;47.70;;;;;;5066171;28;20068;-60
2021/12/03 01:57:47;;;;;;;3.22;1.38;;;16.50;47.70;;;;;;5064377;28;20421;-59
2021/12/03 02:00:20;;;;;;;1.67;1.20;;;16.60;47.70;;;;;;5064109;28;20044;-59
2021/12/03 02:02:48;;;;;;;4.22;1.48;;;16.60;47.70;;;;;;5064475;28;20037;-59
2021/12/03 02:05:15;;;;;;;3.40;1.17;;;16.60;47.70;;;;;;5064144;28;20053;-59
2021/12/03 02:07:43;;;;;;;3.72;0.85;;;16.60;47.70;;;;;;5065186;28;20032;-54
2021/12/03 02:10:11;;;;;;;2.40;1.38;;;16.60;47.70;;;;;;5065204;28;20036;-60
2021/12/03 02:12:39;;;;;;;4.05;1.20;;;16.50;47.70;;;;;;5064042;28;20441;-59
2021/12/03 02:15:07;;;;;;;3.83;1.25;;;16.60;47.70;;;;;;5063920;28;20045;-59
2021/12/03 02:17:35;;;;;;;2.65;1.35;;;16.50;48.40;;;;;;5064297;28;20535;-60
2021/12/03 02:20:03;;;;;;;2.55;1.10;;;16.50;47.80;;;;;;5064462;28;20055;-60
2021/12/03 02:22:32;;;;;;;2.35;1.05;;;16.50;47.90;;;;;;5063807;28;20040;-60
2021/12/03 02:24:59;;;;;;;4.30;1.10;;;16.50;47.90;;;;;;5064428;28;20037;-60
2021/12/03 02:27:26;;;;;;;2.97;1.20;;;16.50;48.50;;;;;;5064234;28;20040;-60
2021/12/03 02:29:53;;;;;;;1.90;1.35;;;16.50;47.90;;;;;;5062598;28;20037;-62
2021/12/03 02:32:20;;;;;;;3.25;1.00;;;16.50;47.90;;;;;;5064497;28;20034;-59
2021/12/03 02:34:47;;;;;;;2.33;1.45;;;16.50;47.90;;;;;;5064644;28;20047;-59
2021/12/03 02:37:14;;;;;;;1.85;1.30;;;16.50;47.90;;;;;;5065419;28;20116;-59
2021/12/03 02:39:42;;;;;;;6.13;0.95;;;16.50;47.90;;;;;;5063913;28;20134;-59
2021/12/03 02:42:09;;;;;;;1.85;1.00;;;16.50;48.00;;;;;;5064346;28;20044;-59
2021/12/03 02:44:37;;;;;;;2.30;1.80;;;16.50;48.00;;;;;;5064079;28;20817;-59
2021/12/03 02:47:05;;;;;;;2.33;0.88;;;16.50;48.00;;;;;;5064055;28;20040;-58
2021/12/03 02:49:37;;;;;;;6.15;1.85;;;16.50;48.00;;;;;;5065806;28;20040;-59
2021/12/03 02:52:05;;;;;;;4.75;1.23;;;16.50;48.00;;;;;;5067969;28;20505;-59
2021/12/03 02:54:32;;;;;;;2.67;1.25;;;16.50;48.00;;;;;;5066584;28;20044;-60
2021/12/03 02:57:00;;;;;;;4.15;1.35;;;16.50;48.00;;;;;;5066018;28;20049;-59
2021/12/03 02:59:28;;;;;;;4.53;1.95;;;16.50;48.00;;;;;;5067764;28;20047;-59
2021/12/03 03:01:55;;;;;;;2.30;1.02;;;16.50;48.00;;;;;;5067419;28;20056;-60
2021/12/03 03:04:22;;;;;;;2.28;0.88;;;16.50;48.00;;;;;;5069033;28;20052;-59
2021/12/03 03:06:49;;;;;;;3.53;1.83;;;16.50;48.00;;;;;;5066845;28;20040;-59
2021/12/03 03:09:16;;;;;;;3.70;1.60;;;16.50;48.00;;;;;;5067553;28;20599;-59
2021/12/03 03:11:43;;;;;;;2.60;1.20;;;16.50;48.00;;;;;;5067183;28;20195;-58
2021/12/03 03:14:12;;;;;;;1.80;1.38;;;16.50;48.00;;;;;;5067591;28;20623;-59
2021/12/03 03:16:39;;;;;;;1.60;0.88;;;16.50;48.00;;;;;;5065759;28;20040;-57
2021/12/03 03:19:11;;;;;;;2.25;1.00;;;16.50;48.00;;;;;;5067697;28;20068;-58
2021/12/03 03:21:39;;;;;;;2.80;0.85;;;16.50;47.90;;;;;;5067255;28;20045;-59
2021/12/03 03:24:07;;;;;;;2.20;0.98;;;16.50;47.90;;;;;;5067584;28;20552;-59
2021/12/03 03:26:36;;;;;;;1.30;0.40;;;16.50;47.90;;;;;;5067154;28;20506;-58
2021/12/03 03:29:05;;;;;;;4.40;1.20;;;16.50;47.90;;;;;;5066985;28;20120;-58
2021/12/03 03:31:34;;;;;;;2.90;1.05;;;16.50;47.90;;;;;;5068554;28;20055;-58
2021/12/03 03:34:02;;;;;;;1.77;0.63;;;16.50;47.90;;;;;;5067455;28;20074;-58
2021/12/03 03:36:32;;;;;;;1.85;0.60;;;16.50;47.80;;;;;;5067425;28;20384;-56
2021/12/03 03:38:59;;;;;;;2.60;0.90;;;16.50;47.80;;;;;;5066634;28;20053;-57
2021/12/03 03:41:28;;;;;;;1.23;0.60;;;16.50;47.80;;;;;;5066727;28;20036;-58
2021/12/03 03:43:55;;;;;;;2.30;1.42;;;16.50;47.80;;;;;;5066717;28;20045;-58
2021/12/03 03:46:22;;;;;;;3.55;0.98;;;16.50;47.80;;;;;;5068415;28;20037;-54
2021/12/03 03:48:51;;;;;;;2.40;0.65;;;16.50;47.70;;;;;;5067140;28;20075;-60
2021/12/03 03:51:19;;;;;;;3.20;0.93;;;16.50;47.70;;;;;;5067058;28;20037;-60
2021/12/03 03:53:46;;;;;;;1.95;1.20;;;16.50;47.80;;;;;;5066897;28;20040;-59
2021/12/03 03:56:13;;;;;;;2.40;0.52;;;16.50;47.80;;;;;;5066593;28;20040;-60
2021/12/03 03:58:41;;;;;;;4.35;0.60;;;16.50;47.70;;;;;;5067437;28;20056;-59
2021/12/03 04:01:09;;;;;;;0.85;0.43;;;16.50;47.70;;;;;;5066585;28;20545;-59
2021/12/03 04:03:36;;;;;;;0.95;0.77;;;16.50;47.70;;;;;;5065894;28;20040;-59
2021/12/03 04:06:05;;;;;;;2.45;0.68;;;16.50;48.30;;;;;;5066359;28;20057;-59
2021/12/03 04:08:32;;;;;;;0.73;0.32;;;16.50;47.70;;;;;;5066271;28;20563;-58
2021/12/03 04:11:01;;;;;;;4.57;0.85;;;16.50;47.70;;;;;;5066175;28;20067;-59
2021/12/03 04:13:29;;;;;;;2.25;1.25;;;16.40;47.70;;;;;;5067764;28;20574;-58
2021/12/03 04:15:56;;;;;;;2.55;0.50;;;16.50;47.70;;;;;;5066341;28;20051;-58
2021/12/03 04:18:24;;;;;;;1.25;0.20;;;16.40;47.70;;;;;;5063897;28;20036;-58
2021/12/03 04:20:51;;;;;;;2.00;0.30;;;16.40;47.70;;;;;;5066118;28;20048;-57
2021/12/03 04:23:20;;;;;;;5.22;0.65;;;16.40;47.70;;;;;;5066084;28;20047;-56
2021/12/03 04:25:47;;;;;;;3.83;0.38;;;16.40;47.70;;;;;;5065873;28;20086;-60
2021/12/03 04:28:15;;;;;;;1.13;0.47;;;16.40;47.70;;;;;;5067354;28;20509;-59
2021/12/03 04:30:42;;;;;;;2.47;0.35;;;16.40;47.70;;;;;;5064009;28;20488;-58
2021/12/03 04:33:09;;;;;;;1.05;0.30;;;16.40;47.80;;;;;;5062865;28;20052;-59
2021/12/03 04:35:37;;;;;;;2.30;0.47;;;16.40;47.90;;;;;;5065842;28;20033;-60
2021/12/03 04:38:05;;;;;;;1.75;0.40;;;16.40;47.90;;;;;;5065691;28;20048;-59
2021/12/03 04:40:36;;;;;;;3.88;0.50;;;16.40;48.00;;;;;;5066779;28;20051;-59
2021/12/03 04:43:04;;;;;;;2.95;0.98;;;16.40;48.00;;;;;;5065535;28;20063;-59
2021/12/03 04:45:31;;;;;;;0.82;0.20;;;16.40;47.90;;;;;;5065298;28;20075;-59
2021/12/03 04:48:00;;;;;;;2.63;0.25;;;16.40;47.90;;;;;;5065753;28;20045;-59
2021/12/03 04:50:29;;;;;;;1.33;0.30;;;16.40;48.00;;;;;;5065889;28;20040;-59
2021/12/03 04:52:57;;;;;;;0.47;0.28;;;16.40;47.90;;;;;;5065137;28;20040;-53
2021/12/03 04:55:24;;;;;;;1.27;0.20;;;16.40;47.90;;;;;;5066926;28;20055;-59
2021/12/03 04:57:54;;;;;;;3.28;0.20;;;16.40;47.90;;;;;;5065316;28;20046;-59
2021/12/03 05:00:24;;;;;;;1.08;0.40;;;16.40;47.90;;;;;;5064670;28;20041;-59
2021/12/03 05:02:52;;;;;;;0.63;0.17;;;16.40;47.90;;;;;;5064777;28;20051;-60
2021/12/03 05:05:22;;;;;;;6.80;0.65;;;16.40;47.90;;;;;;5065264;28;20045;-60
2021/12/03 05:08:04;;;;;;;2.92;0.30;;;16.40;47.90;;;;;;5065334;28;20076;-58
2021/12/03 05:10:33;;;;;;;1.58;0.10;;;16.40;47.90;;;;;;5066223;28;20052;-58
2021/12/03 05:13:04;;;;;;;1.73;0.20;;;16.40;47.90;;;;;;5065222;28;20045;-59
2021/12/03 05:15:32;;;;;;;5.78;0.13;;;16.40;47.90;;;;;;5065411;28;20412;-60
2021/12/03 05:17:59;;;;;;;0.85;0.30;;;16.30;47.80;;;;;;5064848;28;20055;-60
2021/12/03 05:20:27;;;;;;;3.10;0.20;;;16.40;47.90;;;;;;5064893;28;20051;-61
2021/12/03 05:22:54;;;;;;;0.52;0.10;;;16.40;47.90;;;;;;5065155;28;20037;-62
2021/12/03 05:25:22;;;;;;;0.73;0.10;;;16.40;47.90;;;;;;5064308;28;20040;-60
2021/12/03 05:27:51;;;;;;;3.38;0.47;;;16.40;47.90;;;;;;5064984;28;20064;-59
2021/12/03 05:30:19;;;;;;;0.40;0.10;;;16.40;47.90;;;;;;5064748;28;20033;-58
2021/12/03 05:32:47;;;;;;;4.32;0.40;;;16.40;47.90;;;;;;5064907;28;20048;-53
2021/12/03 05:35:14;;;;;;;1.55;0.28;;;16.40;47.90;;;;;;5065139;28;20044;-54
2021/12/03 05:37:42;;;;;;;0.30;0.10;;;16.40;47.90;;;;;;5065685;28;20712;-58
2021/12/03 05:40:11;;;;;;;0.35;0.10;;;16.40;47.80;;;;;;5064169;28;20053;-59
2021/12/03 05:42:38;;;;;;;1.55;0.85;;;16.40;47.90;;;;;;5064816;28;20618;-61
2021/12/03 05:45:07;;;;;;;0.77;0.10;;;16.40;47.90;;;;;;5064760;28;20033;-59
2021/12/03 05:47:36;;;;;;;1.38;0.10;;;16.40;47.90;;;;;;5064890;28;20527;-60
2021/12/03 05:50:03;;;;;;;0.35;0.10;;;16.40;47.90;;;;;;5065031;28;20066;-59
2021/12/03 05:52:30;;;;;;;3.60;0.10;;;16.40;47.80;;;;;;5065575;28;20055;-59
2021/12/03 05:54:57;;;;;;;0.55;0.20;;;16.40;47.80;;;;;;5064655;28;20044;-57
2021/12/03 05:57:24;;;;;;;0.85;0.10;;;16.40;47.80;;;;;;5064580;28;20493;-57
2021/12/03 05:59:52;;;;;;;7.53;0.40;;;16.40;47.80;;;;;;5064459;28;20054;-59
2021/12/03 06:02:20;;;;;;;0.17;0.10;;;16.40;47.80;;;;;;5064458;28;20796;-59
2021/12/03 06:04:49;;;;;;;1.30;0.52;;;16.40;47.80;;;;;;5064939;28;20045;-60
2021/12/03 06:07:16;;;;;;;0.98;0.22;;;16.40;47.70;;;;;;5065273;28;20509;-58
2021/12/03 06:09:45;;;;;;;0.68;0.10;;;16.40;47.70;;;;;;5064531;28;20056;-57
2021/12/03 06:12:12;;;;;;;2.10;0.70;;;16.40;47.70;;;;;;5064567;28;20037;-56
2021/12/03 06:14:39;;;;;;;0.75;0.20;;;16.40;47.60;;;;;;5062306;28;20611;-56
2021/12/03 06:17:06;;;;;;;0.70;0.10;;;16.40;47.70;;;;;;5064406;28;20042;-57
2021/12/03 06:19:33;;;;;;;0.82;0.10;;;16.40;47.70;;;;;;5066100;28;20044;-57
2021/12/03 06:22:02;;;;;;;0.50;0.20;;;16.40;47.70;;;;;;5063807;28;20044;-57
2021/12/03 06:24:29;;;;;;;0.10;0.10;;;16.40;47.70;;;;;;5064002;28;20048;-57
2021/12/03 06:26:56;;;;;;;1.35;0.20;;;16.40;47.70;;;;;;5067606;28;20048;-57
2021/12/03 06:29:23;;;;;;;3.65;0.20;;;16.40;47.70;;;;;;5068273;28;20041;-58
2021/12/03 06:31:51;;;;;;;0.50;0.10;;;16.40;47.70;;;;;;5068190;28;20142;-57
2021/12/03 06:34:18;;;;;;;0.85;0.10;;;16.40;47.70;;;;;;5069683;28;20865;-57
2021/12/03 06:36:45;;;;;;;1.20;0.10;;;16.40;47.60;;;;;;5067613;28;20064;-56
2021/12/03 06:39:14;;;;;;;0.20;0.10;;;16.40;47.60;;;;;;5067900;28;20051;-57
2021/12/03 06:41:41;;;;;;;2.45;0.10;;;16.40;47.60;;;;;;5068354;28;20063;-58
2021/12/03 06:44:08;;;;;;;1.17;0.08;;;16.40;47.60;;;;;;5068090;28;20045;-54
2021/12/03 06:46:36;;;;;;;3.83;0.40;;;16.40;47.60;;;;;;5069279;28;20041;-56
2021/12/03 06:49:03;;;;;;;0.80;0.10;;;16.40;47.60;;;;;;5067720;28;20148;-54
2021/12/03 06:51:31;;;;;;;0.90;0.10;;;16.40;47.60;;;;;;5067501;28;20044;-58
2021/12/03 06:53:59;;;;;;;0.68;0.68;;;16.40;47.60;;;;;;5067366;28;20048;-56
2021/12/03 06:56:33;;;;;;;0.88;0.10;;;16.40;47.50;;;;;;5067720;28;20039;-58
2021/12/03 06:59:01;;;;;;;0.88;0.00;;;16.40;47.60;;;;;;5067898;28;20064;-57
2021/12/03 07:01:28;;;;;;;0.52;0.00;;;16.40;47.50;;;;;;5069232;28;20048;-57
2021/12/03 07:03:55;;;;;;;0.65;0.15;;;16.40;47.50;;;;;;5066873;28;20040;-57
2021/12/03 07:06:22;;;;;;;0.95;0.10;;;16.40;47.50;;;;;;5065188;28;20647;-57
2021/12/03 07:08:50;;;;;;;0.52;0.10;;;16.40;47.50;;;;;;5067552;28;20633;-57
2021/12/03 07:11:18;;;;;;;2.40;0.10;;;16.40;47.50;;;;;;5067594;28;20059;-57
2021/12/03 07:13:48;;;;;;;2.60;0.10;;;16.40;47.50;;;;;;5067786;28;20044;-53
2021/12/03 07:16:15;;;;;;;1.10;0.10;;;16.40;47.40;;;;;;5067898;28;20041;-57
2021/12/03 07:18:43;;;;;;;0.20;0.10;;;16.40;47.50;;;;;;5066696;28;20161;-57
2021/12/03 07:21:10;;;;;;;1.65;0.30;;;16.40;47.40;;;;;;5066981;28;20048;-58
2021/12/03 07:23:38;;;;;;;0.55;0.20;;;16.40;47.40;;;;;;5067131;28;20128;-56
2021/12/03 07:26:05;;;;;;;0.70;0.10;;;16.40;47.40;;;;;;5067514;28;20129;-57
2021/12/03 07:28:33;;;;;;;3.97;0.10;;;16.40;47.40;;;;;;5068866;28;20128;-59
2021/12/03 07:31:03;;;;;;;0.20;0.15;;;16.40;47.50;;;;;;5067092;28;20044;-59
2021/12/03 07:33:31;;;;;;;0.40;0.10;;;16.40;47.50;;;;;;5065171;28;20072;-60
2021/12/03 07:35:58;;;;;;;0.63;0.10;;;16.40;47.50;;;;;;5065397;28;20091;-60
2021/12/03 07:38:25;;;;;;;0.88;0.08;;;16.40;47.50;;;;;;5066857;28;20052;-60
2021/12/03 07:40:53;;;;;;;0.17;0.10;;;16.40;47.40;;;;;;5067201;28;20044;-59
2021/12/03 07:43:20;;;;;;;0.30;0.10;;;16.40;47.40;;;;;;5068110;28;20131;-60
2021/12/03 07:45:48;;;;;;;0.60;0.20;;;16.40;47.50;;;;;;5066563;28;20048;-58
2021/12/03 07:48:17;;;;;;;0.80;0.43;;;16.40;47.50;;;;;;5066069;28;20072;-59
2021/12/03 07:50:45;;;;;;;1.75;0.13;;;16.40;47.40;;;;;;5066617;28;20590;-58
2021/12/03 07:53:14;;;;;;;1.75;0.20;;;16.40;47.40;;;;;;5066170;28;20044;-57
2021/12/03 07:55:42;;;;;;;1.13;0.20;;;16.40;47.50;;;;;;5065113;28;20072;-58
2021/12/03 07:58:09;;;;;;;0.82;0.20;;;16.40;47.40;;;;;;5066489;28;20051;-58
2021/12/03 08:00:38;;;;;;;1.13;0.10;;;16.40;47.50;;;;;;5064682;28;20076;-61
2021/12/03 08:03:05;;;;;;;0.45;0.30;;;16.40;47.50;;;;;;5066653;28;20045;-59
2021/12/03 08:05:34;;;;;;;7.10;0.25;;;16.40;47.50;;;;;;5066433;28;20045;-56
2021/12/03 08:08:01;;;;;;;0.47;0.20;;;16.40;47.40;;;;;;5064424;28;20159;-58
2021/12/03 08:10:29;;;;;;;1.95;0.10;;;16.40;47.40;;;;;;5068047;28;20052;-58
2021/12/03 08:12:56;;;;;;;2.55;1.00;;;16.40;47.40;;;;;;5066151;28;20147;-58
2021/12/03 08:15:23;;;;;;;0.57;0.30;;;16.40;47.40;;;;;;5065597;28;20043;-59
2021/12/03 08:17:51;;;;;;;0.43;0.15;;;16.40;47.40;;;;;;5059426;28;20052;-58
2021/12/03 08:20:19;;;;;;;0.13;0.10;;;16.40;47.40;;;;;;5065757;28;20431;-59
2021/12/03 08:22:47;;;;;;;2.10;0.10;;;16.40;47.30;;;;;;5066568;28;20076;-57
2021/12/03 08:25:14;;;;;;;0.32;0.28;;;16.40;47.30;;;;;;5067564;28;20045;-60
2021/12/03 08:27:42;;;;;;;2.70;0.10;;;16.40;47.30;;;;;;5066394;28;20041;-61
2021/12/03 08:30:11;;;;;;;2.38;0.25;;;16.40;47.40;;;;;;5065768;28;20036;-60
2021/12/03 08:32:38;;;;;;;3.35;0.20;;;16.40;47.50;;;;;;5065607;28;20509;-59
2021/12/03 08:35:06;;;;;;;0.77;0.10;;;16.40;47.50;;;;;;5066092;28;20028;-55
2021/12/03 08:37:33;;;;;;;4.43;0.30;;;16.30;47.60;;;;;;5067073;28;20127;-58
2021/12/03 08:40:02;;;;;;;2.08;0.20;;;16.40;47.70;;;;;;5065552;28;20159;-58
2021/12/03 08:42:29;;;;;;;2.47;0.20;;;16.40;47.70;;;;;;5065677;28;20076;-59
2021/12/03 08:44:58;;;;;;;1.50;0.63;;;16.40;47.60;;;;;;5065050;28;20604;-41
2021/12/03 08:47:25;;;;;;;2.08;0.10;;;16.40;47.70;;;;;;5065228;28;20424;-58
2021/12/03 08:49:55;;;;;;;1.10;0.10;;;16.40;47.60;;;;;;5064220;28;20476;-54
2021/12/03 08:52:32;;;;;;;0.30;0.30;;;16.40;47.60;;;;;;5065683;28;20139;-56
2021/12/03 08:54:59;;;;;;;0.20;0.10;;;16.40;47.60;;;;;;5065576;28;20046;-59
2021/12/03 08:57:30;;;;;;;2.30;0.10;;;16.40;47.60;;;;;;5064957;28;20115;-59
2021/12/03 09:00:01;;;;;;;0.38;0.20;;;16.40;47.60;;;;;;5063530;28;20036;-59
2021/12/03 09:02:29;;;;;;;0.93;0.43;;;16.40;47.60;;;;;;5062330;28;20150;-56
2021/12/03 09:04:56;;;;;;;2.30;0.20;;;16.40;47.50;;;;;;5064824;28;20143;-56
2021/12/03 09:07:23;;;;;;;0.60;0.30;;;16.40;47.50;;;;;;5064491;28;20067;-57
2021/12/03 09:09:51;;;;;;;0.82;0.30;;;16.40;47.50;;;;;;5065047;28;20110;-58
2021/12/03 09:12:18;;;;;;;1.98;0.10;;;16.40;47.50;;;;;;5065090;28;20072;-55
2021/12/03 09:14:50;;;;;;;0.70;0.20;;;16.40;47.50;;;;;;5064442;28;20420;-58
2021/12/03 09:17:33;;;;;;;1.90;0.20;;;16.50;47.50;;;;;;5064976;28;20041;-59
2021/12/03 09:20:06;;;;;;;1.35;0.10;;;16.40;47.50;;;;;;5064010;28;20033;-57
2021/12/03 09:22:39;;;;;;;1.25;0.10;;;16.40;47.40;;;;;;5047495;28;20412;-58
2021/12/03 09:25:09;;;;;;;1.40;0.35;;;16.40;47.40;;;;;;5065320;28;20072;-58
2021/12/03 09:27:36;;;;;;;0.45;0.10;;;16.40;47.40;;;;;;5064383;28;20037;-55
2021/12/03 09:30:07;;;;;;;0.32;0.10;;;16.40;47.40;;;;;;5064642;28;20046;-58
2021/12/03 09:32:34;;;;;;;2.15;0.10;;;16.50;47.50;;;;;;5063520;28;20067;-58
2021/12/03 09:35:03;;;;;;;0.20;0.10;;;16.50;47.40;;;;;;5064880;28;20048;-58
2021/12/03 09:37:31;;;;;;;0.20;0.20;;;16.50;47.40;;;;;;5064882;28;20398;-58
2021/12/03 09:40:04;;;;;;;1.38;0.30;;;16.40;47.30;;;;;;5064459;28;20052;-57
2021/12/03 09:42:34;;;;;;;0.95;0.10;;;16.50;47.40;;;;;;5063993;28;20048;-57
2021/12/03 09:45:03;;;;;;;0.10;0.10;;;16.40;47.30;;;;;;5064096;28;20110;-55
2021/12/03 09:47:32;;;;;;;0.73;0.15;;;16.40;47.40;;;;;;5064981;28;20040;-57
2021/12/03 09:50:02;;;;;;;0.77;0.05;;;16.50;47.40;;;;;;5063662;28;20056;-56
2021/12/03 09:52:34;;;;;;;0.40;0.30;;;16.50;47.40;;;;;;5066391;28;20053;-56
2021/12/03 09:55:03;;;;;;;0.10;0.10;;;16.40;47.30;;;;;;5064372;28;20057;-57
2021/12/03 09:57:36;;;;;;;1.70;0.45;;;16.40;47.30;;;;;;5064701;28;20186;-57
2021/12/03 10:00:16;;;;;;;1.17;0.20;;;16.50;47.40;;;;;;5065538;28;20032;-54
2021/12/03 10:03:03;;;;;;;1.27;0.30;;;16.50;47.40;;;;;;5065733;28;20036;-58
2021/12/03 10:13:44;;;;;;;0.40;0.17;;;16.50;47.90;;;;;;4996813;28;20071;-59
2021/12/03 10:16:36;;;;;;;1.00;0.10;;;16.50;48.00;;;;;;4994170;28;20124;-58
2021/12/03 10:19:23;;;;;;;2.97;0.25;;;16.50;48.10;;;;;;4990745;28;20042;-54
2021/12/03 10:22:10;;;;;;;0.60;0.00;;;16.50;48.20;;;;;;4995453;28;20049;-57
2021/12/03 10:33:14;;;;;;;1.33;0.10;;;16.50;48.30;;;;;;4938126;29;20051;-56
2021/12/03 10:38:59;;;;;;;0.80;0.10;;;16.40;48.30;;;;;;4840945;29;20046;-54
2021/12/03 10:41:39;;;;;;;1.17;0.35;;;16.40;48.40;;;;;;4842337;29;20050;-54
2021/12/03 10:44:21;;;;;;;2.03;0.28;;;16.40;48.40;;;;;;4845908;29;20062;-59
2021/12/03 10:47:05;;;;;;;2.75;0.30;;;16.40;48.50;;;;;;4848515;29;20137;-59
2021/12/03 10:49:46;;;;;;;1.63;0.28;;;16.40;48.50;;;;;;4941720;29;20120;-59
2021/12/03 10:55:19;;;;;;;2.47;0.30;;;16.40;48.60;;;;;;4925762;29;20130;-57
2021/12/03 11:01:07;;;;;;;8.68;0.75;;;16.40;48.80;;;;;;4928471;29;20043;-54
2021/12/03 11:29:32;;;;;;;1.77;0.20;;;16.40;48.60;;;;;;5019287;28;20053;-57
2021/12/03 13:12:59;;;;;;;0.50;0.10;;;16.10;47.80;;;;;;5061850;28;20051;-54
2021/12/03 14:40:49;;;;;;;0.10;0.00;;;16.60;49.40;;;;;;5071598;28;20054;-56
2021/12/03 14:43:35;;;;;;;0.20;0.03;;;16.80;49.10;;;;;;5065574;28;20082;-57
2021/12/03 14:46:36;;;;;;;1.20;0.00;;;16.90;48.70;;;;;;5078557;28;20060;-58
2021/12/03 14:49:28;;;;;;;0.60;0.10;;;17.10;48.30;;;;;;5081416;28;20049;-66
2021/12/03 14:52:06;;;;;;;0.20;0.00;;;17.30;47.90;;;;;;5081479;28;20044;-68
2021/12/03 14:57:30;;;;;;;0.35;0.00;;;17.70;47.10;;;;;;5080104;28;20049;-67
2021/12/03 15:00:10;;;;;;;0.00;0.00;;;17.90;46.70;;;;;;5059609;28;20045;-62
2021/12/03 15:03:07;;;;;;;0.13;0.00;;;18.00;46.20;;;;;;5075547;28;20131;-74
2021/12/03 15:05:51;;;;;;;0.05;0.00;;;18.20;45.80;;;;;;5079049;28;20048;-68
2021/12/03 15:08:22;;;;;;;1.75;0.00;;;18.30;45.50;;;;;;5069227;28;20048;-68
2021/12/03 15:11:25;;;;;;;0.10;0.10;;;18.50;45.20;;;;;;5071489;28;20052;-60
2021/12/03 15:22:32;;;;;;;0.10;0.10;;;19.00;44.10;;;;;;5087058;28;20040;-65
2021/12/03 15:25:04;;;;;;;0.52;0.00;;;19.10;43.90;;;;;;5073090;28;20037;-70
2021/12/03 15:30:32;;;;;;;0.05;0.00;;;19.30;43.50;;;;;;5076412;28;20048;-75
2021/12/03 15:33:03;;;;;;;0.45;0.00;;;19.30;43.20;;;;;;5068771;28;20041;-62
2021/12/03 15:35:37;;;;;;;0.82;0.20;;;19.40;43.70;;;;;;5063843;28;20072;-63
2021/12/03 15:58:03;;;;;;;0.00;0.00;;;19.90;42.20;;;;;;5028021;28;20422;-57
2021/12/03 16:03:41;;;;;;;0.00;0.00;;;20.00;42.00;;;;;;5043998;28;20041;-63
2021/12/03 16:08:55;;;;;;;0.00;0.00;;;20.20;41.60;;;;;;5042029;28;20053;-62
2021/12/03 16:11:32;;;;;;;0.00;0.00;;;20.30;41.50;;;;;;5040662;28;20544;-66
2021/12/03 16:14:20;;;;;;;0.47;0.00;;;20.30;41.20;;;;;;5049213;28;20049;-60
2021/12/03 16:20:04;;;;;;;0.45;0.10;;;20.40;41.00;;;;;;5059452;28;20045;-61
2021/12/03 16:47:32;;;;;;;0.00;0.00;;;20.10;40.60;;;;;;5047872;28;20616;-65
2021/12/03 16:52:47;;;;;;;2.20;0.17;;;19.90;40.80;;;;;;5059804;28;20067;-63
2021/12/03 16:55:15;;;;;;;1.55;0.17;;;19.80;40.90;;;;;;5054725;28;20041;-63
2021/12/03 16:57:44;;;;;;;0.73;0.08;;;19.80;41.00;;;;;;5052991;28;20508;-64
2021/12/03 17:00:20;;;;;;;0.00;0.00;;;19.70;41.10;;;;;;5053763;28;20067;-63
2021/12/03 17:02:52;;;;;;;0.00;0.00;;;19.70;41.20;;;;;;5044144;28;20049;-63
2021/12/03 17:05:35;;;;;;;1.65;0.28;;;19.60;41.80;;;;;;5049417;28;20051;-56
2021/12/03 17:11:29;;;;;;;2.83;0.10;;;19.50;42.70;;;;;;5049384;28;20054;-60
2021/12/03 17:14:08;;;;;;;1.02;0.00;;;19.40;43.00;;;;;;5041892;28;20123;-57
2021/12/03 17:50:35;;;;;;;0.10;0.10;;;18.80;44.50;;;;;;4987973;28;20069;-65
2021/12/03 17:53:24;;;;;;;0.05;0.05;;;18.80;44.50;;;;;;4998413;28;20046;-63
2021/12/03 17:56:04;;;;;;;1.33;0.00;;;18.80;44.60;;;;;;4998105;28;20466;-66
2021/12/03 17:58:33;;;;;;;1.50;0.00;;;18.70;44.60;;;;;;4996344;28;20205;-68
2021/12/03 18:01:04;;;;;;;0.00;0.00;;;18.80;44.60;;;;;;4997194;28;20148;-60
2021/12/03 18:03:36;;;;;;;1.00;0.05;;;18.80;44.70;;;;;;4997462;28;20042;-67
2021/12/03 18:08:51;;;;;;;5.05;0.30;;;18.70;44.70;;;;;;4993116;28;20609;-59
2021/12/03 18:14:30;;;;;;;;;;;18.70;45.00;;;;;;4924668;29;20075;-61
2021/12/03 18:45:09;;;;;;;0.63;0.10;;;19.70;44.60;;;;;;4863210;29;20053;-62
2021/12/03 18:53:35;;;;;;;0.10;0.03;;;20.00;44.20;;;;;;4868088;29;20040;-62
2021/12/03 18:56:06;;;;;;;0.10;0.10;;;20.10;44.20;;;;;;4881388;29;20060;-61
2021/12/03 18:58:33;;;;;;;1.13;0.10;;;20.10;44.00;;;;;;4880291;29;20059;-61
2021/12/03 19:01:00;;;;;;;0.45;0.45;;;20.20;44.00;;;;;;4889861;29;20192;-63
2021/12/03 19:03:35;;;;;;;0.22;0.10;;;20.30;43.80;;;;;;4941482;28;20063;-62
2021/12/03 19:06:12;;;;;;;0.17;0.10;;;20.30;43.80;;;;;;4941301;28;20054;-61
2021/12/03 19:08:45;;;;;;;1.02;0.10;;;20.40;43.70;;;;;;4936947;29;20050;-66
2021/12/03 19:11:18;;;;;;;1.85;0.10;;;20.40;43.80;;;;;;4938723;29;20047;-67
2021/12/03 19:13:45;;;;;;;8.43;0.10;;;20.50;43.70;;;;;;4968582;28;20047;-62
2021/12/03 19:16:15;;;;;;;7.50;0.10;;;20.60;43.80;;;;;;4982374;28;20066;-63
2021/12/03 19:18:45;;;;;;;1.38;0.10;;;20.60;43.70;;;;;;4983594;28;20047;-61
2021/12/03 19:21:17;;;;;;;2.13;0.43;;;20.70;43.80;;;;;;4983952;28;20112;-62
2021/12/03 19:23:44;;;;;;;2.70;0.10;;;20.70;43.70;;;;;;4986436;28;20050;-62
2021/12/03 19:26:11;;;;;;;6.32;0.20;;;20.80;43.80;;;;;;4990947;28;20046;-61
2021/12/03 19:28:41;;;;;;;2.17;0.10;;;20.80;43.70;;;;;;5043421;28;20053;-61